createdAt,value
2023-09-19T00:00:03.137Z,27.56
2023-09-19T00:02:30.388Z,27.60
2023-09-19T00:04:58.938Z,27.64
2023-09-19T00:07:26.131Z,27.68
2023-09-19T00:09:53.261Z,27.70
2023-09-19T00:12:20.427Z,27.69
2023-09-19T00:14:47.591Z,27.64
2023-09-19T00:17:14.871Z,27.76
2023-09-19T00:19:42.070Z,27.79
2023-09-19T00:22:10.933Z,27.81
2023-09-19T00:24:38.109Z,27.79
2023-09-19T00:27:05.431Z,27.73
2023-09-19T00:29:32.988Z,27.76
2023-09-19T00:32:00.211Z,27.76
2023-09-19T00:34:27.436Z,27.76
2023-09-19T00:36:54.668Z,27.73
2023-09-19T00:39:23.290Z,27.73
2023-09-19T00:41:50.610Z,27.73
2023-09-19T00:44:17.796Z,27.74
2023-09-19T00:46:45.090Z,27.68
2023-09-19T00:49:12.507Z,27.61
2023-09-19T00:51:39.879Z,27.65
2023-09-19T00:54:07.278Z,27.65
2023-09-19T00:56:35.802Z,27.66
2023-09-19T00:59:02.982Z,27.67
2023-09-19T01:01:30.242Z,27.68
2023-09-19T01:03:57.736Z,27.67
2023-09-19T01:06:25.221Z,27.68
2023-09-19T01:08:52.357Z,27.76
2023-09-19T01:11:26.350Z,27.76
2023-09-19T01:14:03.902Z,27.73
2023-09-19T01:16:37.784Z,27.78
2023-09-19T01:19:31.676Z,27.66
2023-09-19T01:22:08.962Z,27.75
2023-09-19T01:25:05.099Z,27.69
2023-09-19T01:28:03.245Z,27.77
2023-09-19T01:30:36.255Z,27.67
2023-09-19T01:33:04.199Z,27.72
2023-09-19T01:35:31.369Z,27.72
2023-09-19T01:37:58.522Z,27.68
2023-09-19T01:40:25.752Z,27.61
2023-09-19T01:42:58.607Z,27.67
2023-09-19T01:45:36.527Z,27.69
2023-09-19T01:48:19.371Z,27.65
2023-09-19T01:50:56.882Z,27.17
2023-09-19T01:53:27.906Z,27.69
2023-09-19T01:55:56.154Z,27.67
2023-09-19T01:58:32.336Z,27.73
2023-09-19T02:01:02.034Z,27.77
2023-09-19T02:03:30.376Z,27.76
2023-09-19T02:05:57.560Z,27.74
2023-09-19T02:08:26.876Z,27.65
2023-09-19T02:10:54.281Z,27.75
2023-09-19T02:13:23.919Z,27.75
2023-09-19T02:15:51.168Z,27.76
2023-09-19T02:18:19.685Z,27.75
2023-09-19T02:20:47.107Z,27.71
2023-09-19T02:23:14.725Z,27.74
2023-09-19T02:25:42.109Z,27.73
2023-09-19T02:28:09.393Z,27.74
2023-09-19T02:30:36.624Z,27.70
2023-09-19T02:33:04.553Z,27.65
2023-09-19T02:35:33.376Z,27.64
2023-09-19T02:38:00.629Z,27.63
2023-09-19T02:40:27.895Z,27.64
2023-09-19T02:42:56.323Z,27.59
2023-09-19T02:45:23.669Z,27.68
2023-09-19T02:47:50.991Z,27.71
2023-09-19T02:50:18.369Z,27.69
2023-09-19T02:52:47.712Z,27.73
2023-09-19T02:55:16.100Z,27.76
2023-09-19T02:57:46.838Z,27.79
2023-09-19T03:00:14.839Z,27.76
2023-09-19T03:02:42.505Z,27.74
2023-09-19T03:05:09.941Z,27.73
2023-09-19T03:07:37.231Z,27.74
2023-09-19T03:10:06.761Z,27.73
2023-09-19T03:12:34.229Z,27.71
2023-09-19T03:15:01.387Z,27.71
2023-09-19T03:17:28.688Z,27.71
2023-09-19T03:19:55.987Z,27.65
2023-09-19T03:22:23.231Z,27.64
2023-09-19T03:24:50.470Z,27.56
2023-09-19T03:27:19.097Z,27.61
2023-09-19T03:29:46.304Z,27.68
2023-09-19T03:32:13.574Z,27.63
2023-09-19T03:34:41.122Z,27.71
2023-09-19T03:37:08.449Z,27.69
2023-09-19T03:39:35.712Z,27.70
2023-09-19T03:42:03.399Z,27.72
2023-09-19T03:44:31.917Z,27.71
2023-09-19T03:46:59.233Z,27.73
2023-09-19T03:49:26.526Z,27.77
2023-09-19T03:51:53.675Z,27.74
2023-09-19T03:54:20.820Z,27.75
2023-09-19T03:56:47.997Z,27.73
2023-09-19T03:59:15.148Z,27.71
2023-09-19T04:01:43.740Z,27.60
2023-09-19T04:04:11.010Z,27.63
2023-09-19T04:06:38.178Z,27.73
2023-09-19T04:09:05.701Z,27.74
2023-09-19T04:11:32.883Z,27.53
2023-09-19T04:14:00.196Z,27.33
2023-09-19T04:16:27.453Z,27.26
2023-09-19T04:18:57.142Z,27.09
2023-09-19T04:21:24.503Z,27.15
2023-09-19T04:23:51.700Z,27.17
2023-09-19T04:26:18.921Z,27.32
2023-09-19T04:28:46.106Z,27.36
2023-09-19T04:31:13.382Z,27.36
2023-09-19T04:33:41.018Z,27.42
2023-09-19T04:36:34.226Z,27.49
2023-09-19T04:38:56.765Z,27.52
2023-09-19T04:41:24.070Z,27.53
2023-09-19T04:43:51.302Z,27.54
2023-09-19T04:46:18.521Z,27.49
2023-09-19T04:48:45.722Z,27.54
2023-09-19T04:51:14.225Z,27.42
2023-09-19T04:53:41.594Z,27.52
2023-09-19T04:56:08.947Z,27.46
2023-09-19T04:58:36.193Z,27.51
2023-09-19T05:01:03.401Z,27.49
2023-09-19T05:03:30.871Z,27.52
2023-09-19T05:05:58.071Z,27.46
2023-09-19T05:08:26.608Z,27.44
2023-09-19T05:10:53.837Z,27.44
2023-09-19T05:13:21.052Z,27.44
2023-09-19T05:15:48.324Z,27.45
2023-09-19T05:18:15.475Z,27.44
2023-09-19T05:20:42.685Z,27.41
2023-09-19T05:23:09.875Z,27.41
2023-09-19T05:25:39.252Z,27.48
2023-09-19T05:28:07.362Z,27.53
2023-09-19T05:30:35.600Z,27.54
2023-09-19T05:33:03.244Z,27.58
2023-09-19T05:35:30.490Z,27.60
2023-09-19T05:37:58.415Z,27.59
2023-09-19T05:40:26.687Z,27.59
2023-09-19T05:42:55.247Z,27.64
2023-09-19T05:45:22.536Z,27.60
2023-09-19T05:47:49.902Z,27.60
2023-09-19T05:50:17.182Z,27.61
2023-09-19T05:52:44.993Z,27.56
2023-09-19T05:55:12.167Z,27.63
2023-09-19T05:57:39.372Z,27.61
2023-09-19T06:00:08.981Z,27.58
2023-09-19T06:02:36.852Z,27.57
2023-09-19T06:05:04.747Z,27.55
2023-09-19T06:07:31.983Z,27.58
2023-09-19T06:09:59.180Z,27.60
2023-09-19T06:12:26.362Z,27.54
2023-09-19T06:14:53.659Z,27.60
2023-09-19T06:17:22.182Z,27.63
2023-09-19T06:19:49.362Z,27.69
2023-09-19T06:22:17.410Z,27.71
2023-09-19T06:24:44.636Z,27.71
2023-09-19T06:27:11.767Z,27.77
2023-09-19T06:29:39.036Z,28.12
2023-09-19T06:32:08.415Z,28.59
2023-09-19T06:34:37.026Z,28.54
2023-09-19T06:37:04.741Z,28.51
2023-09-19T06:39:31.890Z,28.44
2023-09-19T06:41:59.450Z,28.34
2023-09-19T06:44:26.662Z,28.19
2023-09-19T06:46:53.843Z,28.25
2023-09-19T06:49:21.038Z,28.22
2023-09-19T06:51:51.253Z,28.23
2023-09-19T06:54:18.820Z,28.10
2023-09-19T06:56:46.144Z,28.16
2023-09-19T06:59:13.321Z,28.11
2023-09-19T07:01:40.765Z,28.15
2023-09-19T07:04:07.984Z,28.10
2023-09-19T07:06:35.159Z,27.92
2023-09-19T07:09:03.888Z,28.08
2023-09-19T07:11:31.027Z,28.10
2023-09-19T07:13:58.804Z,28.11
2023-09-19T07:16:26.166Z,28.11
2023-09-19T07:18:53.361Z,28.08
2023-09-19T07:21:20.532Z,28.03
2023-09-19T07:23:47.672Z,28.11
2023-09-19T07:26:16.240Z,28.14
2023-09-19T07:28:43.612Z,28.09
2023-09-19T07:31:10.875Z,28.13
2023-09-19T07:33:38.217Z,28.10
2023-09-19T07:36:05.838Z,28.07
2023-09-19T07:38:32.996Z,28.06
2023-09-19T07:41:01.596Z,28.00
2023-09-19T07:43:30.181Z,28.00
2023-09-19T07:45:57.365Z,27.95
2023-09-19T07:48:24.570Z,27.94
2023-09-19T07:50:51.753Z,27.92
2023-09-19T07:53:18.899Z,27.94
2023-09-19T07:55:46.074Z,27.99
2023-09-19T07:58:13.257Z,27.98
2023-09-19T08:00:41.757Z,27.98
2023-09-19T08:03:16.145Z,28.01
2023-09-19T08:05:45.258Z,28.02
2023-09-19T08:08:12.466Z,27.96
2023-09-19T08:10:39.682Z,28.04
2023-09-19T08:13:06.892Z,28.03
2023-09-19T08:15:34.087Z,28.03
2023-09-19T08:18:03.612Z,28.01
2023-09-19T08:20:30.867Z,27.99
2023-09-19T08:22:58.238Z,28.00
2023-09-19T08:25:25.461Z,28.02
2023-09-19T08:27:52.678Z,27.98
2023-09-19T08:30:21.496Z,28.01
2023-09-19T08:32:48.653Z,27.98
2023-09-19T08:35:18.002Z,27.91
2023-09-19T08:37:45.233Z,27.88
2023-09-19T08:40:12.485Z,27.89
2023-09-19T08:42:49.708Z,27.88
2023-09-19T08:45:17.198Z,27.85
2023-09-19T08:47:47.907Z,27.89
2023-09-19T08:50:24.480Z,27.85
2023-09-19T08:52:53.127Z,27.89
2023-09-19T08:55:20.703Z,28.01
2023-09-19T08:57:50.661Z,28.02
2023-09-19T09:00:17.964Z,28.01
2023-09-19T09:02:45.762Z,27.86
2023-09-19T09:05:13.850Z,28.03
2023-09-19T09:07:43.055Z,27.99
2023-09-19T09:10:11.116Z,28.03
2023-09-19T09:12:39.399Z,28.01
2023-09-19T09:15:07.561Z,28.01
2023-09-19T09:17:34.853Z,28.02
2023-09-19T09:20:02.161Z,28.01
2023-09-19T09:22:29.396Z,27.99
2023-09-19T09:24:59.049Z,27.96
2023-09-19T09:27:26.370Z,27.88
2023-09-19T09:29:54.192Z,27.91
2023-09-19T09:32:23.369Z,27.91
2023-09-19T09:34:53.163Z,27.87
2023-09-19T09:37:21.568Z,27.86
2023-09-19T09:39:53.223Z,27.91
2023-09-19T09:42:35.431Z,27.88
2023-09-19T09:45:16.751Z,27.89
2023-09-19T09:47:45.516Z,27.96
2023-09-19T09:50:12.761Z,27.98
2023-09-19T09:52:46.744Z,27.97
2023-09-19T09:55:13.937Z,27.97
2023-09-19T09:57:42.483Z,27.96
2023-09-19T10:00:11.489Z,27.94
2023-09-19T10:02:39.066Z,27.95
2023-09-19T10:05:13.615Z,27.91
2023-09-19T10:07:43.534Z,27.97
2023-09-19T10:10:12.193Z,27.89
2023-09-19T10:12:45.903Z,27.92
2023-09-19T10:15:13.507Z,27.95
2023-09-19T10:17:43.153Z,27.90
2023-09-19T10:20:14.364Z,27.87
2023-09-19T10:22:42.293Z,27.88
2023-09-19T10:25:10.375Z,27.82
2023-09-19T10:27:39.704Z,27.84
2023-09-19T10:30:10.418Z,27.85
2023-09-19T10:32:41.526Z,27.89
2023-09-19T10:35:09.653Z,27.89
2023-09-19T10:37:38.307Z,27.95
2023-09-19T10:40:08.240Z,27.82
2023-09-19T10:42:39.546Z,27.99
2023-09-19T10:45:10.387Z,27.97
2023-09-19T10:47:37.586Z,27.96
2023-09-19T10:50:06.820Z,27.96
2023-09-19T10:52:39.874Z,28.00
2023-09-19T10:55:08.709Z,27.99
2023-09-19T10:57:36.272Z,27.97
2023-09-19T11:00:04.884Z,28.00
2023-09-19T11:02:33.539Z,27.99
2023-09-19T11:05:13.145Z,28.01
2023-09-19T11:07:58.330Z,27.98
2023-09-19T11:10:47.127Z,27.92
2023-09-19T11:13:25.543Z,27.93
2023-09-19T11:16:19.030Z,27.91
2023-09-19T11:18:54.254Z,27.93
2023-09-19T11:21:53.532Z,27.90
2023-09-19T11:24:33.870Z,27.93
2023-09-19T11:27:11.792Z,27.93
2023-09-19T11:29:38.939Z,28.03
2023-09-19T11:32:06.231Z,28.07
2023-09-19T11:34:45.699Z,28.12
2023-09-19T11:38:00.982Z,28.13
2023-09-19T11:40:28.393Z,28.09
2023-09-19T11:42:56.005Z,28.08
2023-09-19T11:46:00.716Z,28.03
2023-09-19T11:48:28.409Z,28.00
2023-09-19T11:50:58.459Z,27.98
2023-09-19T11:53:32.579Z,28.02
2023-09-19T11:56:00.762Z,27.94
2023-09-19T11:58:28.472Z,28.06
2023-09-19T12:00:56.044Z,28.04
2023-09-19T12:03:24.401Z,28.01
2023-09-19T12:05:51.650Z,27.98
2023-09-19T12:08:20.309Z,28.07
2023-09-19T12:10:48.766Z,28.08
2023-09-19T12:13:19.373Z,28.14
2023-09-19T12:15:46.839Z,28.07
2023-09-19T12:18:27.389Z,28.12
2023-09-19T12:20:54.585Z,28.20
2023-09-19T12:23:23.090Z,28.28
2023-09-19T12:25:50.668Z,28.36
2023-09-19T12:28:17.961Z,28.33
2023-09-19T12:30:45.878Z,28.34
2023-09-19T12:33:17.384Z,28.34
2023-09-19T12:35:44.527Z,28.31
2023-09-19T12:38:11.779Z,28.28
2023-09-19T12:40:40.861Z,28.28
2023-09-19T12:43:08.619Z,28.28
2023-09-19T12:45:36.806Z,28.34
2023-09-19T12:48:20.149Z,27.87
2023-09-19T12:51:03.963Z,28.25
2023-09-19T12:53:31.198Z,28.18
2023-09-19T12:56:03.158Z,28.22
2023-09-19T12:58:30.434Z,28.20
2023-09-19T13:00:58.230Z,28.26
2023-09-19T13:03:28.962Z,28.25
2023-09-19T13:05:57.452Z,28.31
2023-09-19T13:08:26.737Z,28.37
2023-09-19T13:11:12.419Z,28.33
2023-09-19T13:13:42.196Z,28.42
2023-09-19T13:16:09.710Z,28.53
2023-09-19T13:18:44.613Z,28.49
2023-09-19T13:21:12.605Z,28.51
2023-09-19T13:23:40.005Z,28.54
2023-09-19T13:26:08.725Z,28.53
2023-09-19T13:28:35.901Z,28.50
2023-09-19T13:31:03.177Z,28.48
2023-09-19T13:33:32.047Z,28.52
2023-09-19T13:35:59.860Z,28.51
2023-09-19T13:38:26.998Z,28.47
2023-09-19T13:40:54.300Z,28.52
2023-09-19T13:43:22.802Z,28.56
2023-09-19T13:45:50.265Z,28.57
2023-09-19T13:48:17.463Z,28.54
2023-09-19T13:50:44.634Z,28.55
2023-09-19T13:53:11.897Z,28.62
2023-09-19T13:55:39.251Z,28.56
2023-09-19T13:58:06.478Z,28.63
2023-09-19T14:00:34.997Z,28.63
2023-09-19T14:03:02.285Z,28.62
2023-09-19T14:05:29.518Z,28.57
2023-09-19T14:07:56.719Z,28.79
2023-09-19T14:10:23.954Z,28.78
2023-09-19T14:12:51.096Z,29.00
2023-09-19T14:15:18.373Z,29.02
2023-09-19T14:17:47.121Z,28.92
2023-09-19T14:20:14.601Z,29.10
2023-09-19T14:22:42.370Z,29.17
2023-09-19T14:25:09.644Z,29.23
2023-09-19T14:27:36.824Z,29.31
2023-09-19T14:30:04.570Z,29.31
2023-09-19T14:32:31.750Z,29.40
2023-09-19T14:35:00.322Z,29.05
2023-09-19T14:37:27.473Z,28.66
2023-09-19T14:39:54.736Z,28.70
2023-09-19T14:42:21.899Z,28.32
2023-09-19T14:44:49.497Z,27.89
2023-09-19T14:47:17.061Z,27.85
2023-09-19T14:49:44.337Z,27.54
2023-09-19T14:52:12.955Z,27.42
2023-09-19T14:54:40.345Z,27.64
2023-09-19T14:57:07.497Z,27.75
2023-09-19T14:59:34.655Z,27.71
2023-09-19T15:02:01.924Z,27.78
2023-09-19T15:04:29.352Z,27.84
2023-09-19T15:06:56.730Z,28.21
2023-09-19T15:09:26.933Z,28.28
2023-09-19T15:11:54.117Z,28.14
2023-09-19T15:14:21.316Z,28.01
2023-09-19T15:16:48.620Z,28.34
2023-09-19T15:19:15.870Z,27.74
2023-09-19T15:21:43.062Z,27.61
2023-09-19T15:24:10.749Z,27.94
2023-09-19T15:26:39.396Z,27.88
2023-09-19T15:29:06.800Z,28.56
2023-09-19T15:31:34.417Z,27.87
2023-09-19T15:34:01.568Z,27.65
2023-09-19T15:36:28.763Z,27.61
2023-09-19T15:39:00.950Z,27.39
2023-09-19T15:41:29.478Z,27.41
2023-09-19T15:43:59.334Z,27.49
2023-09-19T15:46:26.577Z,27.39
2023-09-19T15:48:53.794Z,27.44
2023-09-19T15:51:21.053Z,27.53
2023-09-19T15:53:49.612Z,27.57
2023-09-19T15:56:17.723Z,27.49
2023-09-19T15:58:45.715Z,27.25
2023-09-19T16:01:15.301Z,27.17
2023-09-19T16:03:45.165Z,27.36
2023-09-19T16:06:13.433Z,27.19
2023-09-19T16:08:41.709Z,27.33
2023-09-19T16:11:10.170Z,27.35
2023-09-19T16:13:37.522Z,27.29
2023-09-19T16:16:05.208Z,27.07
2023-09-19T16:18:33.725Z,26.84
2023-09-19T16:21:04.417Z,26.83
2023-09-19T16:23:31.665Z,26.87
2023-09-19T16:26:03.209Z,26.74
2023-09-19T16:28:30.400Z,26.55
2023-09-19T16:30:58.926Z,26.68
2023-09-19T16:33:26.156Z,26.78
2023-09-19T16:35:54.682Z,26.86
2023-09-19T16:38:21.907Z,26.88
2023-09-19T16:40:52.942Z,26.77
2023-09-19T16:43:20.161Z,26.74
2023-09-19T16:45:53.543Z,26.68
2023-09-19T16:48:20.849Z,26.81
2023-09-19T16:50:48.026Z,26.81
2023-09-19T16:53:16.723Z,26.77
2023-09-19T16:55:44.271Z,26.71
2023-09-19T16:58:11.460Z,26.80
2023-09-19T17:00:38.639Z,26.68
2023-09-19T17:03:06.250Z,26.50
2023-09-19T17:05:33.942Z,26.41
2023-09-19T17:08:01.544Z,26.56
2023-09-19T17:10:32.428Z,26.42
2023-09-19T17:12:59.734Z,26.39
2023-09-19T17:15:26.885Z,26.33
2023-09-19T17:17:54.374Z,26.08
2023-09-19T17:20:22.226Z,26.07
2023-09-19T17:22:49.481Z,26.06
2023-09-19T17:25:16.667Z,25.99
2023-09-19T17:27:45.160Z,26.10
2023-09-19T17:30:14.273Z,26.19
2023-09-19T17:32:41.443Z,26.32
2023-09-19T17:35:10.323Z,26.21
2023-09-19T17:37:37.559Z,26.19
2023-09-19T17:40:05.928Z,26.23
2023-09-19T17:42:33.093Z,26.22
2023-09-19T17:45:01.792Z,26.08
2023-09-19T17:47:29.002Z,25.99
2023-09-19T17:49:56.180Z,26.04
2023-09-19T17:52:23.440Z,26.12
2023-09-19T17:54:50.581Z,26.15
2023-09-19T17:57:17.809Z,26.16
2023-09-19T17:59:45.102Z,26.13
2023-09-19T18:02:13.615Z,26.12
2023-09-19T18:04:41.226Z,25.84
2023-09-19T18:07:08.384Z,26.07
2023-09-19T18:09:35.544Z,26.00
2023-09-19T18:12:02.782Z,26.05
2023-09-19T18:14:29.942Z,26.09
2023-09-19T18:16:57.095Z,26.20
2023-09-19T18:19:25.678Z,26.36
2023-09-19T18:21:52.840Z,26.49
2023-09-19T18:24:20.014Z,26.44
2023-09-19T18:26:47.169Z,26.60
2023-09-19T18:29:14.469Z,26.64
2023-09-19T18:31:41.713Z,26.70
2023-09-19T18:34:08.926Z,26.69
2023-09-19T18:36:39.082Z,26.75
2023-09-19T18:39:06.357Z,26.74
2023-09-19T18:41:33.735Z,26.79
2023-09-19T18:44:00.941Z,26.76
2023-09-19T18:46:28.239Z,26.80
2023-09-19T18:48:55.454Z,26.85
2023-09-19T18:51:23.092Z,26.90
2023-09-19T18:54:09.504Z,27.02
2023-09-19T18:56:39.495Z,27.00
2023-09-19T18:59:06.752Z,27.16
2023-09-19T19:01:34.016Z,27.16
2023-09-19T19:04:01.773Z,27.16
2023-09-19T19:06:28.965Z,27.14
2023-09-19T19:08:57.529Z,27.14
2023-09-19T19:11:25.048Z,27.22
2023-09-19T19:13:53.170Z,27.19
2023-09-19T19:16:20.476Z,27.22
2023-09-19T19:18:47.866Z,27.21
2023-09-19T19:21:15.098Z,27.20
2023-09-19T19:23:42.281Z,27.25
2023-09-19T19:26:11.177Z,27.15
2023-09-19T19:28:41.552Z,27.24
2023-09-19T19:31:09.453Z,27.00
2023-09-19T19:33:36.844Z,27.05
2023-09-19T19:36:05.039Z,27.25
2023-09-19T19:38:32.175Z,27.18
2023-09-19T19:40:59.552Z,27.28
2023-09-19T19:43:28.380Z,27.29
2023-09-19T19:45:56.547Z,27.36
2023-09-19T19:48:24.028Z,27.40
2023-09-19T19:50:51.336Z,27.40
2023-09-19T19:53:18.585Z,27.41
2023-09-19T19:55:45.809Z,27.34
2023-09-19T19:58:13.076Z,27.29
2023-09-19T20:00:41.821Z,27.25
2023-09-19T20:03:10.163Z,27.06
2023-09-19T20:05:38.177Z,27.07
2023-09-19T20:08:05.651Z,27.05
2023-09-19T20:10:32.886Z,27.11
2023-09-19T20:13:00.017Z,27.07
2023-09-19T20:15:27.211Z,27.16
2023-09-19T20:17:55.797Z,27.15
2023-09-19T20:20:22.979Z,27.16
2023-09-19T20:22:50.198Z,27.16
2023-09-19T20:25:17.507Z,27.16
2023-09-19T20:27:44.828Z,27.15
2023-09-19T20:30:12.218Z,27.18
2023-09-19T20:32:39.714Z,27.18
2023-09-19T20:35:09.171Z,27.23
2023-09-19T20:37:36.395Z,27.24
2023-09-19T20:40:04.166Z,27.19
2023-09-19T20:42:31.287Z,27.23
2023-09-19T20:44:58.411Z,27.23
2023-09-19T20:47:25.901Z,27.21
2023-09-19T20:49:53.330Z,27.21
2023-09-19T20:52:21.852Z,27.10
2023-09-19T20:54:49.705Z,27.14
2023-09-19T20:57:17.239Z,27.16
2023-09-19T20:59:44.444Z,27.11
2023-09-19T21:02:11.658Z,27.09
2023-09-19T21:04:38.802Z,27.03
2023-09-19T21:07:05.972Z,27.03
2023-09-19T21:09:34.699Z,27.04
2023-09-19T21:12:01.868Z,27.07
2023-09-19T21:14:31.248Z,27.03
2023-09-19T21:16:58.812Z,27.06
2023-09-19T21:19:26.291Z,27.06
2023-09-19T21:21:53.430Z,27.13
2023-09-19T21:24:20.686Z,27.13
2023-09-19T21:26:49.352Z,27.11
2023-09-19T21:29:16.529Z,27.10
2023-09-19T21:31:43.736Z,27.11
2023-09-19T21:34:11.003Z,27.04
2023-09-19T21:36:38.168Z,27.10
2023-09-19T21:39:05.472Z,27.09
2023-09-19T21:41:32.704Z,27.07
2023-09-19T21:44:01.362Z,27.08
2023-09-19T21:46:28.733Z,27.01
2023-09-19T21:48:55.982Z,26.98
2023-09-19T21:51:23.691Z,27.00
2023-09-19T21:53:50.892Z,27.00
2023-09-19T21:56:18.128Z,27.02
2023-09-19T21:58:45.395Z,26.99
2023-09-19T22:01:14.688Z,27.00
2023-09-19T22:03:42.016Z,26.84
2023-09-19T22:06:11.194Z,27.05
2023-09-19T22:08:38.653Z,27.09
2023-09-19T22:11:06.597Z,27.09
2023-09-19T22:13:33.778Z,27.10
2023-09-19T22:16:01.437Z,27.11
2023-09-19T22:18:30.916Z,27.08
2023-09-19T22:20:58.765Z,27.08
2023-09-19T22:23:26.750Z,27.07
2023-09-19T22:25:54.546Z,27.04
2023-09-19T22:28:21.754Z,27.05
2023-09-19T22:30:48.922Z,27.03
2023-09-19T22:33:17.147Z,27.03
2023-09-19T22:35:46.595Z,26.97
2023-09-19T22:38:15.161Z,26.95
2023-09-19T22:40:42.524Z,26.96
2023-09-19T22:43:10.175Z,26.98
2023-09-19T22:45:37.359Z,26.98
2023-09-19T22:48:05.210Z,26.97
2023-09-19T22:50:32.851Z,26.99
2023-09-19T22:53:01.544Z,27.02
2023-09-19T22:55:28.722Z,27.03
2023-09-19T22:57:56.205Z,26.92
2023-09-19T23:00:23.711Z,27.07
2023-09-19T23:02:50.964Z,27.03
2023-09-19T23:05:18.268Z,27.07
2023-09-19T23:07:45.502Z,27.08
2023-09-19T23:10:14.281Z,27.08
2023-09-19T23:12:41.414Z,26.97
2023-09-19T23:15:09.178Z,27.03
2023-09-19T23:17:36.444Z,27.06
2023-09-19T23:20:04.350Z,27.05
2023-09-19T23:22:31.585Z,26.98
2023-09-19T23:24:58.759Z,26.88
2023-09-19T23:27:27.325Z,26.95
2023-09-19T23:29:54.656Z,26.95
2023-09-19T23:32:21.892Z,27.02
2023-09-19T23:34:49.196Z,26.82
2023-09-19T23:37:16.990Z,27.02
2023-09-19T23:39:44.690Z,26.96
2023-09-19T23:42:11.836Z,27.08
2023-09-19T23:44:40.744Z,27.06
2023-09-19T23:47:07.895Z,27.08
2023-09-19T23:49:35.296Z,27.09
2023-09-19T23:52:02.471Z,27.10
2023-09-19T23:54:29.610Z,27.06
2023-09-19T23:56:56.782Z,27.07
2023-09-19T23:59:24.133Z,27.05
